Time;durP1;ratioP1;P1;durP2;ratioP2;P2;SDS_P1;SDS_P2;PMS_P1;PMS_P2;Temp;Humidity;BMP_temperature;BMP_pressure;BME280_temperature;BME280_humidity;BME280_pressure;Samples;Min_cycle;Max_cycle;Signal;HPM_P1;HPM_P2
2021/12/08 00:01:12;;;;;;;46.43;19.13;;;;;;;-3.72;100.00;100158.72;5004869;28;20451;-73
2021/12/08 00:03:39;;;;;;;49.23;20.50;;;;;;;-3.70;100.00;100168.09;5008046;28;20949;-71
2021/12/08 00:06:08;;;;;;;51.67;21.67;;;;;;;-3.71;100.00;100161.31;5007448;28;20804;-73
2021/12/08 00:08:34;;;;;;;43.23;19.30;;;;;;;-3.72;100.00;100154.47;5005338;28;20485;-73
2021/12/08 00:13:45;;;;;;;40.50;18.83;;;;;;;-3.69;100.00;100149.47;5006134;28;20556;-73
2021/12/08 00:16:14;;;;;;;44.93;18.63;;;;;;;-3.70;100.00;100150.28;5005184;28;20469;-73
2021/12/08 00:18:46;;;;;;;43.10;19.10;;;;;;;-3.74;100.00;100145.09;5005267;28;21187;-73
2021/12/08 00:21:16;;;;;;;40.23;17.23;;;;;;;-3.74;100.00;100143.38;5006507;28;20820;-72
2021/12/08 00:23:42;;;;;;;45.47;19.07;;;;;;;-3.75;100.00;100136.56;5007282;28;20546;-73
2021/12/08 00:26:10;;;;;;;46.67;19.67;;;;;;;-3.72;100.00;100135.78;5004017;28;20489;-73
2021/12/08 00:28:37;;;;;;;51.43;19.60;;;;;;;-3.75;100.00;100128.91;5024073;28;20859;-71
2021/12/08 00:31:06;;;;;;;42.00;18.43;;;;;;;-3.75;100.00;100130.59;5004941;28;21002;-73
2021/12/08 00:33:33;;;;;;;46.83;18.07;;;;;;;-3.74;100.00;100123.00;5007090;28;20548;-73
2021/12/08 00:36:02;;;;;;;46.97;19.40;;;;;;;-3.74;100.00;100128.09;5005439;28;20470;-73
2021/12/08 00:38:30;;;;;;;48.33;18.73;;;;;;;-3.71;100.00;100122.19;5007104;28;20477;-73
2021/12/08 00:40:57;;;;;;;48.17;18.83;;;;;;;-3.68;100.00;100127.38;5006298;28;20458;-73
2021/12/08 00:43:25;;;;;;;46.80;20.40;;;;;;;-3.67;100.00;100119.78;5003659;28;20815;-73
2021/12/08 00:45:53;;;;;;;44.30;19.03;;;;;;;-3.64;100.00;100101.13;5005938;28;20508;-73
2021/12/08 00:48:19;;;;;;;43.20;18.83;;;;;;;-3.64;100.00;100102.00;5004835;28;20948;-72
2021/12/08 00:50:46;;;;;;;45.17;19.60;;;;;;;-3.60;100.00;100094.44;5005193;28;20477;-71
2021/12/08 00:53:13;;;;;;;44.37;18.97;;;;;;;-3.57;100.00;100091.94;5004207;28;20972;-73
2021/12/08 00:55:41;;;;;;;43.53;20.30;;;;;;;-3.55;100.00;100090.28;5005377;28;20473;-72
2021/12/08 00:58:08;;;;;;;46.60;19.60;;;;;;;-3.53;100.00;100083.56;5003452;28;20468;-73
2021/12/08 01:00:38;;;;;;;43.70;18.93;;;;;;;-3.52;100.00;100085.25;5003843;28;20450;-73
2021/12/08 01:03:05;;;;;;;40.50;18.57;;;;;;;-3.49;100.00;100088.75;5002737;28;20493;-72
2021/12/08 01:05:35;;;;;;;40.77;18.33;;;;;;;-3.48;100.00;100084.53;5004400;28;20458;-73
2021/12/08 01:08:02;;;;;;;48.27;20.73;;;;;;;-3.47;100.00;100076.03;5004485;28;20462;-73
2021/12/08 01:10:29;;;;;;;44.00;19.43;;;;;;;-3.45;100.00;100072.72;5006303;28;20480;-73
2021/12/08 01:12:57;;;;;;;46.90;19.27;;;;;;;-3.44;100.00;100069.31;5001165;28;20960;-73
2021/12/08 01:15:26;;;;;;;42.53;19.23;;;;;;;-3.44;100.00;100066.75;5006540;28;20477;-73
2021/12/08 01:17:53;;;;;;;47.50;19.20;;;;;;;-3.40;100.00;100056.66;5005126;28;20543;-71
2021/12/08 01:20:20;;;;;;;37.70;18.07;;;;;;;-3.40;100.00;100061.75;5003451;28;20473;-72
2021/12/08 01:22:46;;;;;;;41.57;19.03;;;;;;;-3.43;100.00;100055.75;5002902;28;20453;-73
2021/12/08 01:25:13;;;;;;;42.70;18.33;;;;;;;-3.44;100.00;100056.56;5003808;28;20970;-73
2021/12/08 01:27:40;;;;;;;42.20;18.77;;;;;;;-3.45;100.00;100054.88;5003033;28;20475;-72
2021/12/08 01:30:10;;;;;;;42.20;17.50;;;;;;;-3.44;100.00;100048.91;5004156;28;20486;-71
2021/12/08 01:32:37;;;;;;;37.47;17.40;;;;;;;-3.42;100.00;100046.41;5006525;28;20465;-71
2021/12/08 01:35:05;;;;;;;41.73;18.83;;;;;;;-3.42;100.00;100043.84;5005449;28;20449;-72
2021/12/08 01:37:32;;;;;;;41.43;18.10;;;;;;;-3.40;100.00;100049.84;5003871;28;20466;-73
2021/12/08 01:39:59;;;;;;;45.13;19.30;;;;;;;-3.38;100.00;100037.97;4997215;28;20576;-71
2021/12/08 01:42:31;;;;;;;42.57;19.60;;;;;;;-3.38;100.00;100040.53;5004571;28;20517;-73
2021/12/08 01:47:43;;;;;;;44.47;19.77;;;;;;;-3.32;100.00;100037.28;5005417;28;20466;-73
2021/12/08 01:50:11;;;;;;;38.97;18.57;;;;;;;-3.31;100.00;100034.72;5001916;28;20494;-73
2021/12/08 01:52:38;;;;;;;41.03;18.87;;;;;;;-3.29;100.00;100040.75;5004553;28;20498;-73
2021/12/08 01:55:06;;;;;;;43.67;19.30;;;;;;;-3.31;100.00;100037.28;5003611;28;20467;-72
2021/12/08 01:57:33;;;;;;;48.37;19.67;;;;;;;-3.27;100.00;100045.88;5005043;28;20462;-73
2021/12/08 01:59:59;;;;;;;44.57;20.60;;;;;;;-3.25;100.00;100034.88;5001359;28;20481;-73
2021/12/08 02:02:26;;;;;;;41.13;19.00;;;;;;;-3.20;100.00;100039.19;5005378;28;20477;-72
2021/12/08 02:04:54;;;;;;;48.50;19.40;;;;;;;-3.18;100.00;100043.50;5003230;28;20469;-73
2021/12/08 02:07:21;;;;;;;42.70;19.20;;;;;;;-3.21;100.00;100035.78;5004875;28;20486;-73
2021/12/08 02:09:47;;;;;;;39.60;19.07;;;;;;;-3.18;100.00;100033.31;5002052;28;20494;-73
2021/12/08 02:12:14;;;;;;;43.07;19.43;;;;;;;-3.18;100.00;100032.44;5005962;28;20467;-71
2021/12/08 02:14:40;;;;;;;40.27;18.57;;;;;;;-3.22;100.00;100018.75;5002334;28;20484;-72
2021/12/08 02:17:10;;;;;;;40.63;17.87;;;;;;;-3.20;100.00;100022.22;5001323;28;20207;-73
2021/12/08 02:19:38;;;;;;;41.03;18.67;;;;;;;-3.19;100.00;100015.44;5002256;28;20569;-73
2021/12/08 02:22:05;;;;;;;41.27;19.07;;;;;;;-3.20;100.00;100003.50;5006831;28;20463;-73
2021/12/08 02:24:32;;;;;;;46.13;19.27;;;;;;;-3.20;100.00;100013.69;5003217;28;20195;-73
2021/12/08 02:26:59;;;;;;;41.43;18.87;;;;;;;-3.18;100.00;100009.47;5004880;28;20470;-71
2021/12/08 02:29:35;;;;;;;47.23;19.77;;;;;;;-3.18;100.00;99999.28;5003418;28;20557;-72
2021/12/08 02:32:09;;;;;;;40.70;18.37;;;;;;;-3.18;100.00;100002.72;4997140;28;20466;-73
2021/12/08 02:48:27;;;;;;;40.53;18.93;;;;;;;-3.16;100.00;99969.59;4977876;28;20618;-73
2021/12/08 02:50:53;;;;;;;37.40;17.80;;;;;;;-3.18;100.00;99959.38;5002140;28;20931;-73
2021/12/08 02:53:21;;;;;;;40.17;17.80;;;;;;;-3.18;100.00;99963.56;5003880;28;20234;-72
2021/12/08 02:55:48;;;;;;;39.47;18.33;;;;;;;-3.15;100.00;99959.44;5001331;28;20831;-71
2021/12/08 02:58:15;;;;;;;41.33;18.13;;;;;;;-3.17;100.00;99952.56;4999661;28;20950;-71
2021/12/08 03:00:44;;;;;;;41.60;18.50;;;;;;;-3.18;100.00;99956.81;5002132;28;20952;-72
2021/12/08 03:03:11;;;;;;;36.47;17.93;;;;;;;-3.19;100.00;99951.69;5005907;28;20469;-73
2021/12/08 03:05:37;;;;;;;39.30;17.80;;;;;;;-3.19;100.00;99944.03;5002207;28;21111;-73
2021/12/08 03:08:06;;;;;;;41.13;18.20;;;;;;;-3.18;100.00;99945.72;5004593;28;20458;-72
2021/12/08 03:10:38;;;;;;;38.17;16.80;;;;;;;-3.20;100.00;99939.75;5002115;28;20231;-72
2021/12/08 03:13:05;;;;;;;40.23;18.23;;;;;;;-3.23;100.00;99940.56;5004291;28;20457;-73
2021/12/08 03:15:32;;;;;;;38.80;18.23;;;;;;;-3.22;100.00;99942.25;5000045;28;20464;-71
2021/12/08 03:17:58;;;;;;;37.47;17.80;;;;;;;-3.26;100.00;99949.00;5003333;28;20459;-73
2021/12/08 03:20:37;;;;;;;42.63;18.27;;;;;;;-3.25;100.00;99940.53;5001932;28;20452;-72
2021/12/08 03:23:04;;;;;;;33.53;16.30;;;;;;;-3.26;100.00;99943.03;5000133;28;21015;-72
2021/12/08 03:25:36;;;;;;;36.17;17.57;;;;;;;-3.27;100.00;99952.41;5002502;28;20546;-71
2021/12/08 03:28:09;;;;;;;39.77;18.13;;;;;;;-3.26;100.00;99960.91;5000158;28;20475;-73
2021/12/08 03:30:40;;;;;;;35.50;16.27;;;;;;;-3.27;100.00;99954.09;5002551;28;20475;-73
2021/12/08 03:33:08;;;;;;;35.43;16.93;;;;;;;-3.28;100.00;99950.66;5002835;28;20971;-72
2021/12/08 03:35:35;;;;;;;39.07;16.30;;;;;;;-3.26;100.00;99943.03;5002254;28;20203;-71
2021/12/08 03:38:02;;;;;;;34.60;17.00;;;;;;;-3.26;100.00;99936.25;5001373;28;20464;-72
2021/12/08 03:40:29;;;;;;;37.17;16.87;;;;;;;-3.26;100.00;99941.34;5003026;28;20464;-73
2021/12/08 03:42:58;;;;;;;34.63;16.13;;;;;;;-3.28;100.00;99932.81;5004646;28;20842;-73
2021/12/08 03:45:29;;;;;;;36.10;16.57;;;;;;;-3.26;100.00;99922.66;5005051;28;20476;-73
2021/12/08 03:48:01;;;;;;;34.17;16.13;;;;;;;-3.27;100.00;99933.69;5004720;28;20462;-73
2021/12/08 03:50:30;;;;;;;42.90;17.40;;;;;;;-3.26;100.00;99931.16;5006371;28;20475;-73
2021/12/08 03:52:57;;;;;;;38.80;18.20;;;;;;;-3.25;100.00;99930.34;5005791;28;20458;-73
2021/12/08 03:55:24;;;;;;;33.30;17.57;;;;;;;-3.24;100.00;99942.25;5006608;28;20470;-73
2021/12/08 03:57:50;;;;;;;36.97;17.60;;;;;;;-3.22;100.00;99933.75;5006510;28;20454;-73
2021/12/08 04:00:20;;;;;;;34.80;17.70;;;;;;;-3.24;100.00;99938.81;5006642;28;20983;-71
2021/12/08 04:02:49;;;;;;;38.77;17.73;;;;;;;-3.22;100.00;99931.22;5006462;28;20819;-72
2021/12/08 04:05:19;;;;;;;38.60;17.47;;;;;;;-3.25;100.00;99935.44;5006947;28;20472;-72
2021/12/08 04:07:46;;;;;;;36.03;16.50;;;;;;;-3.27;100.00;99936.25;5004506;28;20473;-73
2021/12/08 04:10:18;;;;;;;35.70;16.83;;;;;;;-3.25;100.00;99934.56;5006216;28;20483;-70
2021/12/08 04:12:46;;;;;;;34.03;16.40;;;;;;;-3.25;100.00;99925.22;5007002;28;21110;-71
2021/12/08 04:15:15;;;;;;;44.23;18.37;;;;;;;-3.28;100.00;99937.91;5006047;28;20818;-73
2021/12/08 04:17:45;;;;;;;36.70;17.57;;;;;;;-3.30;100.00;99947.22;5006278;28;20815;-73
2021/12/08 04:20:17;;;;;;;42.07;18.00;;;;;;;-3.30;100.00;99936.19;5001993;28;20781;-73
2021/12/08 04:22:48;;;;;;;43.93;18.77;;;;;;;-3.28;100.00;99934.50;5006644;28;20462;-73
2021/12/08 04:25:19;;;;;;;39.30;18.07;;;;;;;-3.28;100.00;99939.59;5005853;28;20458;-72
2021/12/08 04:27:47;;;;;;;40.73;16.23;;;;;;;-3.31;100.00;99931.91;5006158;28;20203;-73
2021/12/08 04:30:17;;;;;;;38.00;17.40;;;;;;;-3.32;100.00;99928.50;5005715;28;20574;-73
2021/12/08 04:32:44;;;;;;;39.93;17.77;;;;;;;-3.33;100.00;99928.47;5006400;28;20467;-71
2021/12/08 04:35:15;;;;;;;38.17;16.70;;;;;;;-3.35;100.00;99925.88;5003816;28;20462;-72
2021/12/08 04:37:46;;;;;;;38.17;17.03;;;;;;;-3.37;100.00;99922.44;5007407;28;20581;-73
2021/12/08 04:40:23;;;;;;;36.60;16.10;;;;;;;-3.38;100.00;99918.16;5000650;28;20479;-73
2021/12/08 04:43:02;;;;;;;41.70;17.17;;;;;;;-3.41;100.00;99913.03;5006142;28;20458;-71
2021/12/08 04:45:39;;;;;;;40.30;15.90;;;;;;;-3.46;100.00;99905.28;5006303;28;20474;-72
2021/12/08 04:48:19;;;;;;;41.97;17.33;;;;;;;-3.48;100.00;99911.19;5004870;28;20466;-72
2021/12/08 04:51:19;;;;;;;41.40;16.83;;;;;;;-3.50;100.00;99908.63;5005369;28;20469;-73
2021/12/08 04:54:05;;;;;;;41.40;17.20;;;;;;;-3.55;100.00;99911.88;5004016;28;21235;-72
2021/12/08 05:02:24;;;;;;;39.83;17.27;;;;;;;-3.66;100.00;99888.75;5002625;28;20553;-70
2021/12/08 05:05:04;;;;;;;39.90;17.03;;;;;;;-3.70;100.00;99892.06;5001982;28;21059;-72
2021/12/08 05:07:47;;;;;;;46.53;17.90;;;;;;;-3.73;100.00;99881.81;5007173;28;20918;-70
2021/12/08 05:10:16;;;;;;;44.83;17.60;;;;;;;-3.74;100.00;99890.31;5006237;28;20477;-72
2021/12/08 05:12:45;;;;;;;46.43;18.23;;;;;;;-3.75;100.00;99888.56;4999796;28;20533;-73
2021/12/08 05:15:16;;;;;;;44.93;17.93;;;;;;;-3.79;100.00;99889.34;5005399;28;20453;-73
2021/12/08 05:17:48;;;;;;;51.33;18.60;;;;;;;-3.82;100.00;99891.00;5004937;28;20453;-72
2021/12/08 05:20:26;;;;;;;45.80;17.97;;;;;;;-3.82;100.00;99890.13;5003520;28;20870;-72
2021/12/08 05:22:58;;;;;;;47.50;18.87;;;;;;;-3.81;100.00;99890.16;5004182;28;20465;-72
2021/12/08 05:25:35;;;;;;;51.03;17.73;;;;;;;-3.83;100.00;99889.28;5002017;28;20442;-72
2021/12/08 05:28:06;;;;;;;55.13;19.83;;;;;;;-3.86;100.00;99889.19;5006074;28;20550;-72
2021/12/08 05:30:36;;;;;;;50.60;19.57;;;;;;;-3.85;100.00;99890.94;5004890;28;20488;-73
2021/12/08 05:33:04;;;;;;;50.67;19.23;;;;;;;-3.85;100.00;99897.72;5003903;28;20978;-72
2021/12/08 05:35:31;;;;;;;50.13;17.67;;;;;;;-3.85;100.00;99907.91;5001158;28;21187;-73
2021/12/08 05:37:59;;;;;;;54.37;19.10;;;;;;;-3.86;100.00;99904.50;5001805;28;20546;-71
2021/12/08 05:40:34;;;;;;;50.93;18.53;;;;;;;-3.89;100.00;99919.69;5002110;28;20469;-73
2021/12/08 05:43:01;;;;;;;50.90;18.93;;;;;;;-3.91;100.00;99911.16;5004831;28;20465;-73
2021/12/08 05:45:27;;;;;;;55.87;20.77;;;;;;;-3.92;100.00;99916.22;5004186;28;20461;-73
2021/12/08 05:47:55;;;;;;;47.47;18.63;;;;;;;-3.93;100.00;99912.84;5017920;28;20508;-73
2021/12/08 05:50:26;;;;;;;52.13;18.90;;;;;;;-3.94;100.00;99907.69;5004404;28;20491;-73
2021/12/08 05:52:54;;;;;;;48.67;19.20;;;;;;;-3.95;100.00;99906.84;4999729;28;20945;-72
2021/12/08 05:55:22;;;;;;;55.57;19.37;;;;;;;-3.93;100.00;99902.66;5001858;28;20460;-72
2021/12/08 05:57:49;;;;;;;54.23;19.90;;;;;;;-3.93;100.00;99907.75;5003695;28;21245;-73
2021/12/08 06:00:21;;;;;;;53.93;19.03;;;;;;;-3.93;100.00;99911.97;5002337;28;20489;-71
2021/12/08 06:02:48;;;;;;;51.53;19.27;;;;;;;-3.94;100.00;99902.59;5019026;28;21008;-72
2021/12/08 06:05:15;;;;;;;58.33;20.03;;;;;;;-3.93;100.00;99886.50;4998078;28;20467;-70
2021/12/08 06:07:42;;;;;;;53.10;21.33;;;;;;;-3.95;100.00;99890.72;5001704;28;20461;-73
2021/12/08 06:10:15;;;;;;;53.97;18.87;;;;;;;-3.92;100.00;99893.31;5001160;28;20484;-71
2021/12/08 06:12:43;;;;;;;53.27;20.13;;;;;;;-3.98;100.00;99893.19;5001356;28;20478;-73
2021/12/08 06:15:10;;;;;;;46.63;19.00;;;;;;;-3.97;100.00;99894.91;5002022;28;20454;-73
2021/12/08 06:17:37;;;;;;;48.53;19.13;;;;;;;-3.97;100.00;99905.09;5003714;28;20495;-71
2021/12/08 06:20:05;;;;;;;51.97;19.20;;;;;;;-4.00;100.00;99911.00;5001928;28;21020;-72
2021/12/08 06:22:32;;;;;;;52.47;18.43;;;;;;;-3.97;100.00;99917.81;5002955;28;20449;-72
2021/12/08 06:24:58;;;;;;;58.63;20.50;;;;;;;-3.99;100.00;99917.81;5003434;28;20467;-73
2021/12/08 06:27:25;;;;;;;49.53;18.67;;;;;;;-3.98;100.00;99909.31;5001198;28;20466;-71
2021/12/08 06:29:53;;;;;;;57.30;20.17;;;;;;;-3.99;100.00;99912.72;5004252;28;20487;-72
2021/12/08 06:32:20;;;;;;;52.83;19.13;;;;;;;-4.01;100.00;99907.59;5000158;28;20518;-72
2021/12/08 06:34:48;;;;;;;45.37;18.63;;;;;;;-4.02;100.00;99916.03;5003260;28;20508;-72
2021/12/08 06:37:20;;;;;;;47.27;20.00;;;;;;;-4.02;100.00;99908.41;5004265;28;20852;-73
2021/12/08 06:39:50;;;;;;;57.50;19.23;;;;;;;-4.00;100.00;99909.28;5017609;28;20475;-73
2021/12/08 06:42:20;;;;;;;52.43;19.07;;;;;;;-4.01;100.00;99916.91;5001191;28;20955;-72
2021/12/08 06:44:48;;;;;;;45.50;18.40;;;;;;;-3.99;100.00;99915.25;4997947;28;20730;-73
2021/12/08 06:47:20;;;;;;;50.10;19.90;;;;;;;-4.02;100.00;99910.94;4999092;28;20480;-71
2021/12/08 06:49:47;;;;;;;54.50;19.60;;;;;;;-3.99;100.00;99915.25;5000435;28;20487;-72
2021/12/08 06:52:20;;;;;;;46.37;18.83;;;;;;;-3.97;100.00;99910.19;5001642;28;20575;-73
2021/12/08 06:54:50;;;;;;;57.33;19.40;;;;;;;-3.97;100.00;99910.19;5000727;28;21004;-73
2021/12/08 06:57:21;;;;;;;49.57;19.10;;;;;;;-3.97;100.00;99915.28;5003233;28;20457;-71
2021/12/08 06:59:57;;;;;;;57.80;19.73;;;;;;;-3.95;100.00;99911.94;5003264;28;20558;-71
2021/12/08 07:02:51;;;;;;;62.13;20.70;;;;;;;-3.93;100.00;99915.38;5005681;28;20449;-73
2021/12/08 07:05:30;;;;;;;51.27;19.63;;;;;;;-3.94;100.00;99911.13;5002021;28;20552;-71
2021/12/08 07:08:00;;;;;;;48.97;18.70;;;;;;;-3.95;100.00;99916.19;5001493;28;20958;-72
2021/12/08 07:10:32;;;;;;;57.87;21.27;;;;;;;-3.92;100.00;99917.13;5002618;28;20460;-72
2021/12/08 07:13:03;;;;;;;51.93;20.27;;;;;;;-3.86;100.00;99922.31;5003678;28;21068;-72
2021/12/08 07:15:34;;;;;;;57.00;20.17;;;;;;;-3.87;100.00;99933.34;5002995;28;20548;-72
2021/12/08 07:18:09;;;;;;;56.53;21.67;;;;;;;-3.84;100.00;99930.84;5003993;28;20459;-73
2021/12/08 07:20:45;;;;;;;59.97;21.03;;;;;;;-3.85;100.00;99928.28;5004519;28;20479;-73
2021/12/08 07:23:16;;;;;;;51.20;19.90;;;;;;;-3.83;100.00;99922.38;5005248;28;21104;-72
2021/12/08 07:25:43;;;;;;;53.70;19.43;;;;;;;-3.79;100.00;99922.47;5006987;28;20837;-73
2021/12/08 07:28:11;;;;;;;57.63;20.10;;;;;;;-3.76;100.00;99915.75;5006820;28;20468;-73
2021/12/08 07:30:42;;;;;;;60.00;20.87;;;;;;;-3.72;100.00;99914.97;5007058;28;21021;-71
2021/12/08 07:33:10;;;;;;;51.90;19.73;;;;;;;-3.69;100.00;99916.72;5006474;28;20849;-72
2021/12/08 07:35:42;;;;;;;56.67;21.73;;;;;;;-3.66;100.00;99916.78;5006165;28;20498;-72
2021/12/08 07:38:13;;;;;;;67.80;22.40;;;;;;;-3.64;100.00;99910.91;5007468;28;21085;-72
2021/12/08 07:40:49;;;;;;;51.37;20.90;;;;;;;-3.62;100.00;99909.22;5007819;28;20506;-73
2021/12/08 07:43:20;;;;;;;62.03;21.47;;;;;;;-3.59;100.00;99905.88;5005297;28;20891;-71
2021/12/08 07:45:51;;;;;;;62.03;21.63;;;;;;;-3.55;100.00;99905.13;5006912;28;20456;-73
2021/12/08 07:48:23;;;;;;;55.17;21.27;;;;;;;-3.54;100.00;99904.28;5004630;28;20475;-73
2021/12/08 07:50:52;;;;;;;61.67;21.93;;;;;;;-3.50;100.00;99912.84;5007781;28;21231;-73
2021/12/08 07:53:22;;;;;;;56.47;20.80;;;;;;;-3.46;100.00;99907.00;5007749;28;20472;-73
2021/12/08 07:55:51;;;;;;;61.80;21.37;;;;;;;-3.46;100.00;99910.38;5007583;28;20468;-71
2021/12/08 07:58:21;;;;;;;56.80;21.37;;;;;;;-3.42;100.00;99903.66;5020114;28;20465;-73
2021/12/08 08:00:50;;;;;;;60.30;22.27;;;;;;;-3.37;100.00;99909.69;5005681;28;21180;-72
2021/12/08 08:03:17;;;;;;;56.60;21.40;;;;;;;-3.35;100.00;99902.94;5006910;28;20467;-73
2021/12/08 08:05:49;;;;;;;62.13;21.67;;;;;;;-3.31;100.00;99902.16;5008232;28;20465;-73
2021/12/08 08:08:18;;;;;;;61.13;21.50;;;;;;;-3.26;100.00;99895.44;5006247;28;20461;-72
2021/12/08 08:10:49;;;;;;;55.80;20.97;;;;;;;-3.22;100.00;99895.50;5001296;28;20850;-71
2021/12/08 08:13:18;;;;;;;59.57;20.67;;;;;;;-3.17;100.00;99891.34;5005894;28;20464;-73
2021/12/08 08:15:49;;;;;;;61.90;21.47;;;;;;;-3.12;100.00;99889.75;5005024;28;21075;-73
2021/12/08 08:18:20;;;;;;;58.50;21.00;;;;;;;-3.07;100.00;99895.78;5006624;28;20465;-73
2021/12/08 08:20:54;;;;;;;53.30;20.57;;;;;;;-3.03;100.00;99886.50;5002652;28;20586;-72
2021/12/08 08:23:25;;;;;;;55.40;21.43;;;;;;;-2.98;100.00;99890.84;5004867;28;20456;-71
2021/12/08 08:25:53;;;;;;;56.77;20.67;;;;;;;-2.94;100.00;99890.03;5005695;28;20839;-72
2021/12/08 08:28:20;;;;;;;53.70;20.43;;;;;;;-2.90;100.00;99886.75;5006881;28;20792;-72
2021/12/08 08:30:50;;;;;;;54.47;20.93;;;;;;;-2.87;100.00;99883.38;5004201;28;20467;-73
2021/12/08 08:33:17;;;;;;;58.53;22.03;;;;;;;-2.83;100.00;99879.16;5006698;28;20494;-73
2021/12/08 08:35:46;;;;;;;53.33;21.40;;;;;;;-2.80;100.00;99877.53;5001402;28;20525;-71
2021/12/08 08:38:18;;;;;;;54.70;19.57;;;;;;;-2.77;100.00;99858.88;5007974;28;20462;-71
2021/12/08 08:40:49;;;;;;;56.60;20.53;;;;;;;-2.75;100.00;99845.28;5003892;28;20958;-73
2021/12/08 08:43:16;;;;;;;53.70;21.53;;;;;;;-2.70;100.00;99842.81;5003121;28;20504;-72
2021/12/08 08:45:46;;;;;;;53.77;21.17;;;;;;;-2.63;100.00;99841.22;5003495;28;21023;-73
2021/12/08 08:48:16;;;;;;;55.37;19.50;;;;;;;-2.58;100.00;99829.38;5004451;28;20812;-71
2021/12/08 08:50:46;;;;;;;49.43;19.57;;;;;;;-2.55;100.00;99830.28;5004410;28;20491;-73
2021/12/08 08:53:16;;;;;;;51.47;19.70;;;;;;;-2.51;100.00;99832.03;5006655;28;20470;-73
2021/12/08 08:55:46;;;;;;;53.17;20.00;;;;;;;-2.47;100.00;99836.34;5004503;28;20455;-72
2021/12/08 08:58:13;;;;;;;45.47;19.00;;;;;;;-2.42;100.00;99833.84;5002947;28;20987;-73
2021/12/08 09:00:45;;;;;;;48.40;18.10;;;;;;;-2.40;100.00;99846.66;4999650;28;20459;-72
2021/12/08 09:03:18;;;;;;;45.03;18.93;;;;;;;-2.37;100.00;99850.09;5002957;28;20470;-73
2021/12/08 09:05:51;;;;;;;44.53;17.40;;;;;;;-2.33;100.00;99851.84;5004921;28;20461;-70
2021/12/08 09:08:23;;;;;;;41.77;18.10;;;;;;;-2.28;100.00;99850.22;5001704;28;20553;-73
2021/12/08 09:10:53;;;;;;;42.43;18.63;;;;;;;-2.23;100.00;99846.84;5004075;28;20239;-73
2021/12/08 09:13:22;;;;;;;44.63;18.33;;;;;;;-2.17;100.00;99852.06;5001964;28;20232;-73
2021/12/08 09:15:53;;;;;;;37.00;16.97;;;;;;;-2.12;100.00;99860.66;5004405;28;20201;-72
2021/12/08 09:18:25;;;;;;;42.73;17.53;;;;;;;-2.10;100.00;99851.31;5004103;28;20209;-73
2021/12/08 09:21:08;;;;;;;42.43;16.47;;;;;;;-2.06;100.00;99852.19;5005753;28;20747;-72
2021/12/08 09:23:39;;;;;;;41.00;17.13;;;;;;;-2.03;100.00;99859.91;5000750;28;20365;-71
2021/12/08 09:26:09;;;;;;;37.97;16.13;;;;;;;-1.99;100.00;99848.88;5003509;28;20290;-73
2021/12/08 09:28:41;;;;;;;36.87;16.43;;;;;;;-1.95;100.00;99848.94;5004729;28;20236;-72
2021/12/08 09:31:11;;;;;;;37.03;16.23;;;;;;;-1.91;100.00;99852.41;5006149;28;20207;-72
2021/12/08 09:33:42;;;;;;;45.47;17.13;;;;;;;-1.86;100.00;99839.69;5002253;28;20216;-73
2021/12/08 09:36:13;;;;;;;38.57;15.43;;;;;;;-1.81;100.00;99838.00;5000801;28;20211;-72
2021/12/08 09:38:44;;;;;;;35.13;16.10;;;;;;;-1.80;100.00;99829.53;5005644;28;20224;-73
2021/12/08 09:41:15;;;;;;;41.73;17.03;;;;;;;-1.77;100.00;99827.84;5002607;28;20220;-71
2021/12/08 09:43:46;;;;;;;40.53;16.53;;;;;;;-1.73;100.00;99829.59;5001931;28;20208;-73
2021/12/08 09:46:16;;;;;;;40.50;16.13;;;;;;;-1.69;100.00;99815.16;5003176;28;20215;-73
2021/12/08 09:48:45;;;;;;;36.00;15.43;;;;;;;-1.67;100.00;99828.81;4999439;28;20239;-73
2021/12/08 09:51:18;;;;;;;39.33;16.60;;;;;;;-1.63;100.00;99816.94;5004947;28;20208;-72
2021/12/08 09:53:47;;;;;;;42.03;16.40;;;;;;;-1.60;100.00;99819.50;5001157;28;20247;-73
2021/12/08 09:56:15;;;;;;;32.60;15.60;;;;;;;-1.55;100.00;99821.28;5002370;28;20197;-72
2021/12/08 09:58:42;;;;;;;35.47;16.20;;;;;;;-1.49;100.00;99823.03;5003159;28;20667;-73
2021/12/08 10:01:13;;;;;;;38.57;16.43;;;;;;;-1.46;100.00;99815.41;5003368;28;20209;-73
2021/12/08 10:03:40;;;;;;;40.63;16.93;;;;;;;-1.43;100.00;99809.44;5002052;28;20205;-72
2021/12/08 10:06:08;;;;;;;39.70;16.43;;;;;;;-1.38;100.00;99811.19;5004254;28;20215;-73
2021/12/08 10:08:35;;;;;;;34.43;15.70;;;;;;;-1.38;100.00;99816.31;5001664;28;20285;-72
2021/12/08 10:11:03;;;;;;;34.70;16.17;;;;;;;-1.35;100.00;99812.94;5002785;28;20677;-73
2021/12/08 10:13:30;;;;;;;32.57;14.97;;;;;;;-1.30;100.00;99805.28;5002247;28;20225;-73
2021/12/08 10:15:56;;;;;;;33.53;15.27;;;;;;;-1.29;100.00;99819.81;5003417;28;20211;-72
2021/12/08 10:18:23;;;;;;;33.20;15.30;;;;;;;-1.24;100.00;99825.84;5002879;28;20239;-71
2021/12/08 10:20:52;;;;;;;31.27;14.80;;;;;;;-1.20;100.00;99820.75;5003818;28;20200;-73
2021/12/08 10:23:23;;;;;;;36.77;15.63;;;;;;;-1.14;100.00;99814.84;5002041;28;20251;-73
2021/12/08 10:25:52;;;;;;;37.17;16.07;;;;;;;-1.09;100.00;99809.75;5000617;28;20628;-72
2021/12/08 10:28:22;;;;;;;36.10;15.90;;;;;;;-1.06;100.00;99815.75;5002550;28;20669;-73
2021/12/08 10:30:53;;;;;;;36.90;15.83;;;;;;;-1.04;100.00;99816.63;5003266;28;20208;-73
2021/12/08 10:33:53;;;;;;;36.07;16.23;;;;;;;-1.00;100.00;99812.41;5000903;28;20212;-73
2021/12/08 10:36:37;;;;;;;38.30;15.97;;;;;;;-1.00;100.00;99804.72;5004336;28;20612;-73
2021/12/08 10:39:07;;;;;;;38.70;16.07;;;;;;;-0.95;100.00;99818.38;5003359;28;20224;-73
2021/12/08 10:41:50;;;;;;;38.60;17.43;;;;;;;-0.93;100.00;99810.72;4998704;28;20205;-71
2021/12/08 10:44:23;;;;;;;35.53;15.67;;;;;;;-0.88;100.00;99803.94;5003448;28;20208;-73
2021/12/08 10:46:54;;;;;;;37.63;15.90;;;;;;;-0.87;100.00;99790.31;4999188;28;20215;-73
2021/12/08 10:49:27;;;;;;;30.03;15.13;;;;;;;-0.88;100.00;99796.25;4999885;28;20302;-73
2021/12/08 10:54:38;;;;;;;34.83;15.63;;;;;;;-0.84;100.00;99792.91;5002116;28;20949;-73
2021/12/08 10:57:20;;;;;;;34.27;15.27;;;;;;;-0.80;100.00;99794.63;5004930;28;20684;-73
2021/12/08 10:59:57;;;;;;;37.20;16.63;;;;;;;-0.77;100.00;99784.41;5004539;28;20231;-73
2021/12/08 11:02:38;;;;;;;34.57;15.43;;;;;;;-0.72;100.00;99776.72;5007424;28;20199;-73
2021/12/08 11:05:08;;;;;;;37.30;16.17;;;;;;;-0.67;100.00;99781.06;5002957;28;20216;-73
2021/12/08 11:07:34;;;;;;;36.27;15.63;;;;;;;-0.62;100.00;99771.66;5006028;28;20204;-73
2021/12/08 11:10:17;;;;;;;33.73;15.03;;;;;;;-0.55;100.00;99779.41;5003448;28;20247;-72
2021/12/08 11:12:43;;;;;;;40.40;16.03;;;;;;;-0.48;100.00;99778.59;5006488;28;20213;-73
2021/12/08 11:15:22;;;;;;;30.97;16.00;;;;;;;-0.39;100.00;99776.06;5020768;28;21032;-73
2021/12/08 11:18:06;;;;;;;33.83;15.10;;;;;;;-0.34;100.00;99774.38;5007001;28;20209;-73
2021/12/08 11:20:33;;;;;;;34.87;16.17;;;;;;;-0.27;100.00;99777.84;5006544;28;20213;-73
2021/12/08 11:23:02;;;;;;;32.30;15.67;;;;;;;-0.15;100.00;99769.34;5005433;28;20205;-72
2021/12/08 11:25:34;;;;;;;31.17;15.27;;;;;;;-0.07;100.00;99771.09;5020199;28;20289;-73
2021/12/08 11:28:19;;;;;;;28.40;14.43;;;;;;;-0.01;100.00;99783.06;5002706;28;20228;-72
2021/12/08 11:30:47;;;;;;;33.87;15.30;;;;;;;0.08;100.00;99780.53;5006942;28;20209;-73
2021/12/08 11:33:17;;;;;;;32.23;15.50;;;;;;;0.19;100.00;99765.16;5005706;28;20227;-73
2021/12/08 11:35:44;;;;;;;30.67;14.17;;;;;;;0.16;100.00;99778.84;5005981;28;20197;-73
2021/12/08 11:38:11;;;;;;;35.07;16.03;;;;;;;0.14;100.00;99766.88;5005887;28;20210;-74
2021/12/08 11:40:38;;;;;;;31.27;14.37;;;;;;;0.06;99.53;99777.09;5006095;28;20213;-74
2021/12/08 11:43:13;;;;;;;31.80;14.77;;;;;;;0.01;99.51;99771.09;5002868;28;20212;-74
2021/12/08 11:45:42;;;;;;;31.67;14.90;;;;;;;-0.02;99.61;99771.09;5006862;28;20207;-72
2021/12/08 11:48:22;;;;;;;30.37;14.43;;;;;;;-0.10;99.30;99775.34;5004742;28;20209;-74